Time;durP1;ratioP1;P1;durP2;ratioP2;P2;SDS_P1;SDS_P2;PMS_P1;PMS_P2;Temp;Humidity;BMP_temperature;BMP_pressure;BME280_temperature;BME280_humidity;BME280_pressure;Samples;Min_cycle;Max_cycle;Signal;HPM_P1;HPM_P2
2022/01/20 00:00:45;;;;;;;1.17;0.60;;;16.50;59.30;;;;;;4991879;28;20026;-62
2022/01/20 00:03:15;;;;;;;1.17;0.80;;;16.50;59.30;;;;;;4997546;28;20030;-59
2022/01/20 00:06:28;;;;;;;2.45;0.98;;;16.50;59.20;;;;;;4996836;28;20395;-57
2022/01/20 00:09:20;;;;;;;0.70;0.68;;;16.50;59.10;;;;;;4992186;28;20099;-61
2022/01/20 00:27:50;;;;;;;1.40;0.90;;;16.50;59.00;;;;;;5003953;28;20096;-57
2022/01/20 00:30:42;;;;;;;1.60;0.75;;;16.50;59.00;;;;;;5004221;28;20107;-57
2022/01/20 00:38:14;;;;;;;1.58;0.73;;;16.50;59.10;;;;;;4991605;28;20028;-59
2022/01/20 00:40:40;;;;;;;1.42;0.90;;;16.50;59.20;;;;;;4995466;28;20104;-59
2022/01/20 00:43:05;;;;;;;0.93;0.82;;;16.50;59.20;;;;;;4995816;28;20480;-59
2022/01/20 00:45:31;;;;;;;0.60;0.60;;;16.50;59.20;;;;;;4988650;28;20479;-57
2022/01/20 00:47:57;;;;;;;1.17;0.70;;;16.50;59.10;;;;;;4991844;28;20065;-59
2022/01/20 00:50:24;;;;;;;1.48;0.70;;;16.50;59.10;;;;;;4992112;28;20030;-60
2022/01/20 00:52:50;;;;;;;1.27;0.50;;;16.50;59.00;;;;;;4991303;28;20030;-58
2022/01/20 00:55:15;;;;;;;0.70;0.60;;;16.50;59.60;;;;;;4997234;28;20697;-57
2022/01/20 00:57:41;;;;;;;1.88;0.80;;;16.50;58.90;;;;;;4997865;28;20027;-59
2022/01/20 01:00:07;;;;;;;2.17;0.60;;;16.50;58.90;;;;;;4991937;28;20718;-59
2022/01/20 01:02:35;;;;;;;1.80;0.70;;;16.50;58.80;;;;;;4992878;28;20027;-60
2022/01/20 01:05:01;;;;;;;0.70;0.60;;;16.50;58.90;;;;;;4999537;28;20029;-59
2022/01/20 01:07:44;;;;;;;0.88;0.65;;;16.50;58.90;;;;;;5000157;28;20034;-58
2022/01/20 01:10:10;;;;;;;0.98;0.52;;;16.50;58.90;;;;;;4990155;28;20241;-58
2022/01/20 01:12:54;;;;;;;1.27;0.60;;;16.60;58.90;;;;;;4999910;28;20023;-59
2022/01/20 01:15:27;;;;;;;1.23;0.52;;;16.50;58.80;;;;;;4999645;28;20022;-59
2022/01/20 01:23:22;;;;;;;0.70;0.63;;;16.60;58.80;;;;;;4986131;28;20640;-59
2022/01/20 01:25:48;;;;;;;1.73;0.60;;;16.50;58.60;;;;;;5000125;28;20030;-59
2022/01/20 01:28:13;;;;;;;1.73;0.50;;;16.50;58.60;;;;;;5001149;28;20643;-59
2022/01/20 01:33:08;;;;;;;0.90;0.60;;;16.50;58.50;;;;;;4989202;28;20026;-55
2022/01/20 01:35:38;;;;;;;1.35;0.57;;;16.50;58.60;;;;;;4996217;28;20495;-56
2022/01/20 01:40:29;;;;;;;2.53;0.90;;;16.50;58.60;;;;;;4989815;28;20387;-58
2022/01/20 01:42:55;;;;;;;0.90;0.57;;;16.50;58.70;;;;;;4990774;28;20105;-58
2022/01/20 01:45:33;;;;;;;0.60;0.60;;;16.50;58.70;;;;;;4983981;28;20480;-57
2022/01/20 01:47:59;;;;;;;0.70;0.50;;;16.50;58.70;;;;;;5003137;28;20491;-59
2022/01/20 01:50:24;;;;;;;2.40;0.52;;;16.60;58.70;;;;;;4987729;28;20033;-58
2022/01/20 01:52:50;;;;;;;0.50;0.50;;;16.60;58.70;;;;;;5010210;28;20045;-60
2022/01/20 01:55:16;;;;;;;0.77;0.40;;;16.60;58.70;;;;;;4983223;28;20447;-61
2022/01/20 01:57:41;;;;;;;2.15;0.68;;;16.60;58.80;;;;;;4996884;28;20037;-58
2022/01/20 02:00:08;;;;;;;0.82;0.43;;;16.60;58.80;;;;;;4985315;28;20519;-57
2022/01/20 02:02:34;;;;;;;1.83;0.50;;;16.60;58.80;;;;;;4994371;28;20451;-58
2022/01/20 02:05:02;;;;;;;1.05;0.40;;;16.60;58.90;;;;;;4991818;28;20109;-57
2022/01/20 02:07:54;;;;;;;1.85;0.47;;;16.60;58.90;;;;;;4991076;28;20035;-58
2022/01/20 02:20:52;;;;;;;0.60;0.60;;;16.60;58.60;;;;;;4994327;28;20792;-60
2022/01/20 02:23:17;;;;;;;1.13;0.50;;;16.60;58.60;;;;;;4995654;28;20399;-60
2022/01/20 02:25:43;;;;;;;0.73;0.50;;;16.60;58.60;;;;;;4995790;28;20027;-60
2022/01/20 02:28:09;;;;;;;0.45;0.45;;;16.60;58.50;;;;;;4994560;28;20050;-56
2022/01/20 02:30:35;;;;;;;0.63;0.40;;;16.60;58.40;;;;;;4997096;28;20104;-58
2022/01/20 02:33:04;;;;;;;0.55;0.40;;;16.60;58.40;;;;;;4993055;28;20495;-55
2022/01/20 02:35:32;;;;;;;0.68;0.40;;;16.60;58.30;;;;;;5000356;28;20034;-60
2022/01/20 02:38:05;;;;;;;0.88;0.55;;;16.60;58.20;;;;;;4993706;28;20030;-59
2022/01/20 02:45:43;;;;;;;0.35;0.30;;;16.60;58.10;;;;;;4987031;28;20185;-59
2022/01/20 02:48:08;;;;;;;1.58;0.82;;;16.60;58.00;;;;;;4992200;28;20646;-57
2022/01/20 02:50:34;;;;;;;0.70;0.43;;;16.60;58.00;;;;;;4991655;28;20402;-60
2022/01/20 02:52:59;;;;;;;0.52;0.43;;;16.60;57.90;;;;;;5003128;28;20077;-58
2022/01/20 02:55:25;;;;;;;0.68;0.40;;;16.60;57.90;;;;;;4984780;28;20108;-58
2022/01/20 02:57:50;;;;;;;1.30;0.50;;;16.60;57.90;;;;;;4996296;28;20033;-60
2022/01/20 03:00:16;;;;;;;1.83;0.50;;;16.60;57.90;;;;;;4991541;28;20484;-59
2022/01/20 03:02:42;;;;;;;0.43;0.30;;;16.60;57.90;;;;;;4998582;28;20030;-60
2022/01/20 03:05:10;;;;;;;2.17;0.50;;;16.70;57.90;;;;;;5001304;28;20049;-58
2022/01/20 03:07:36;;;;;;;2.85;0.60;;;16.70;57.90;;;;;;4995716;28;20038;-60
2022/01/20 03:10:03;;;;;;;0.98;0.52;;;16.60;57.90;;;;;;4995796;28;20100;-59
2022/01/20 03:12:28;;;;;;;1.95;0.55;;;16.60;57.90;;;;;;4998423;28;20771;-59
2022/01/20 03:14:53;;;;;;;0.50;0.30;;;16.60;57.90;;;;;;4992688;28;20058;-59
2022/01/20 03:17:19;;;;;;;0.93;0.43;;;16.70;57.80;;;;;;5002277;28;20092;-58
2022/01/20 03:19:45;;;;;;;1.88;0.50;;;16.70;57.80;;;;;;4994266;28;20030;-58
2022/01/20 03:22:10;;;;;;;1.13;0.70;;;16.60;57.70;;;;;;4981758;28;20520;-60
2022/01/20 03:24:36;;;;;;;1.33;0.60;;;16.60;57.70;;;;;;5003742;28;20033;-57
2022/01/20 03:27:01;;;;;;;1.30;0.70;;;16.70;57.70;;;;;;4986552;28;20041;-57
2022/01/20 03:29:27;;;;;;;1.20;0.63;;;16.60;57.50;;;;;;4999236;28;20125;-57
2022/01/20 03:31:52;;;;;;;0.90;0.50;;;16.70;57.50;;;;;;4987126;28;20049;-59
2022/01/20 03:34:21;;;;;;;1.50;0.73;;;16.70;57.50;;;;;;5002500;28;20030;-57
2022/01/20 03:36:47;;;;;;;0.80;0.60;;;16.70;57.40;;;;;;4996999;28;20034;-59
2022/01/20 03:39:12;;;;;;;2.72;0.85;;;16.60;57.30;;;;;;4998519;28;20036;-58
2022/01/20 03:41:38;;;;;;;1.77;0.70;;;16.70;57.30;;;;;;4988044;28;20484;-58
2022/01/20 03:44:03;;;;;;;1.88;0.50;;;16.70;57.20;;;;;;4990141;28;20054;-57
2022/01/20 03:46:29;;;;;;;2.40;0.82;;;16.60;57.10;;;;;;4991315;28;20498;-59
2022/01/20 03:49:06;;;;;;;1.90;0.70;;;16.70;57.10;;;;;;4993978;28;20105;-57
2022/01/20 03:51:31;;;;;;;1.63;0.57;;;16.70;57.00;;;;;;4987683;28;20029;-59
2022/01/20 03:53:57;;;;;;;3.20;0.70;;;16.70;56.90;;;;;;5000743;28;20495;-59
2022/01/20 03:56:22;;;;;;;0.73;0.52;;;16.70;56.90;;;;;;4982376;28;20077;-57
2022/01/20 03:58:48;;;;;;;1.60;0.70;;;16.70;56.90;;;;;;4994926;28;20030;-60
2022/01/20 04:01:14;;;;;;;4.57;0.80;;;16.70;56.70;;;;;;4995959;28;20614;-60
2022/01/20 04:03:40;;;;;;;2.60;0.70;;;16.70;56.70;;;;;;4993989;28;20061;-59
2022/01/20 04:06:06;;;;;;;2.97;0.60;;;16.70;56.70;;;;;;4982706;28;20038;-59
2022/01/20 04:08:36;;;;;;;2.08;0.70;;;16.70;56.60;;;;;;5018514;23;20045;-55
2022/01/20 04:11:07;;;;;;;2.15;0.77;;;16.70;56.60;;;;;;5027555;28;20038;-56
2022/01/20 04:13:33;;;;;;;3.58;0.80;;;16.70;56.60;;;;;;5024147;28;20036;-53
2022/01/20 04:16:00;;;;;;;3.55;0.70;;;16.70;56.50;;;;;;5018397;28;20037;-53
2022/01/20 04:18:27;;;;;;;1.80;0.73;;;16.70;56.40;;;;;;5023126;28;20486;-54
2022/01/20 04:20:53;;;;;;;1.70;0.90;;;16.70;56.40;;;;;;5010109;28;20445;-52
2022/01/20 04:23:18;;;;;;;1.77;0.77;;;16.70;56.40;;;;;;5012892;28;20026;-52
2022/01/20 04:25:44;;;;;;;1.35;0.43;;;16.70;56.40;;;;;;5021845;28;20138;-57
2022/01/20 04:28:09;;;;;;;2.83;0.90;;;16.70;56.30;;;;;;5018891;28;20087;-55
2022/01/20 04:30:35;;;;;;;3.63;0.93;;;16.70;56.30;;;;;;5009457;28;20517;-52
2022/01/20 04:33:00;;;;;;;2.72;0.60;;;16.70;56.30;;;;;;5012890;28;20034;-53
2022/01/20 04:35:26;;;;;;;2.25;0.70;;;16.70;56.40;;;;;;5017936;28;20054;-56
2022/01/20 04:37:54;;;;;;;2.88;1.48;;;16.70;56.40;;;;;;5010038;28;20054;-57
2022/01/20 04:40:19;;;;;;;1.85;0.60;;;16.60;56.40;;;;;;5003047;28;20645;-53
2022/01/20 04:42:47;;;;;;;2.15;0.75;;;16.60;56.40;;;;;;5031183;28;20029;-54
2022/01/20 04:45:18;;;;;;;1.95;1.00;;;16.60;56.50;;;;;;5009383;28;20024;-56
2022/01/20 04:58:21;;;;;;;1.40;0.65;;;16.50;56.80;;;;;;5004412;28;20141;-57
2022/01/20 05:00:47;;;;;;;3.20;0.82;;;16.50;56.80;;;;;;5016405;28;20116;-55
2022/01/20 05:03:12;;;;;;;1.63;0.70;;;16.50;56.90;;;;;;5012542;28;20029;-58
2022/01/20 05:05:38;;;;;;;2.88;0.60;;;16.50;56.90;;;;;;5020946;28;20025;-57
2022/01/20 05:08:03;;;;;;;2.92;0.80;;;16.50;56.90;;;;;;5010880;28;20050;-53
2022/01/20 05:10:32;;;;;;;3.15;1.35;;;16.50;56.90;;;;;;5017696;28;20034;-52
2022/01/20 05:15:23;;;;;;;1.85;0.93;;;16.50;57.00;;;;;;5007971;28;20022;-52
2022/01/20 05:17:50;;;;;;;3.03;0.90;;;16.50;57.00;;;;;;4988891;28;20026;-55
2022/01/20 05:20:15;;;;;;;3.30;1.30;;;16.50;57.10;;;;;;5005048;28;20040;-53
2022/01/20 05:22:41;;;;;;;1.73;1.10;;;16.50;57.10;;;;;;5018333;28;20025;-56
2022/01/20 05:25:07;;;;;;;2.92;0.90;;;16.50;57.10;;;;;;5011234;28;20456;-56
2022/01/20 05:27:32;;;;;;;4.60;0.80;;;16.50;57.20;;;;;;5021059;28;21515;-53
2022/01/20 05:29:58;;;;;;;2.13;0.82;;;16.50;57.20;;;;;;5013899;28;20499;-53
2022/01/20 05:32:23;;;;;;;1.75;0.52;;;16.50;57.20;;;;;;5012469;28;20021;-53
2022/01/20 05:34:49;;;;;;;2.85;1.27;;;16.50;57.20;;;;;;5030304;28;20022;-57
2022/01/20 05:37:15;;;;;;;2.85;1.25;;;16.50;57.20;;;;;;5013969;28;20034;-57
2022/01/20 05:39:40;;;;;;;2.75;0.60;;;16.50;57.20;;;;;;5003873;28;20033;-53
2022/01/20 05:42:07;;;;;;;3.42;0.98;;;16.50;57.30;;;;;;5013236;28;20513;-55
2022/01/20 05:44:32;;;;;;;2.38;0.70;;;16.50;57.20;;;;;;5011856;28;20104;-55
2022/01/20 05:46:58;;;;;;;3.58;1.05;;;16.50;57.20;;;;;;5031925;28;20499;-56
2022/01/20 05:49:23;;;;;;;3.28;1.00;;;16.50;57.20;;;;;;5018776;28;20034;-55
2022/01/20 05:51:52;;;;;;;5.63;1.15;;;16.50;57.20;;;;;;5023839;28;20076;-55
2022/01/20 05:54:18;;;;;;;2.63;0.75;;;16.50;57.30;;;;;;5008201;28;20038;-55
2022/01/20 05:56:44;;;;;;;4.50;1.17;;;16.50;57.20;;;;;;5016555;28;20499;-56
2022/01/20 05:59:10;;;;;;;2.60;0.93;;;16.50;57.20;;;;;;5010280;28;20048;-53
2022/01/20 06:01:37;;;;;;;1.60;0.77;;;16.60;57.20;;;;;;5009643;28;20030;-56
2022/01/20 06:04:03;;;;;;;2.47;0.70;;;16.50;57.10;;;;;;5018772;28;20053;-55
2022/01/20 06:06:29;;;;;;;2.72;1.00;;;16.50;57.10;;;;;;5017072;28;20029;-55
2022/01/20 06:08:54;;;;;;;3.55;1.05;;;16.60;57.00;;;;;;5017710;28;20614;-56
2022/01/20 06:11:20;;;;;;;4.68;1.13;;;16.60;57.00;;;;;;5026471;28;20026;-54
2022/01/20 06:13:45;;;;;;;7.97;2.28;;;16.60;56.90;;;;;;5021293;28;20034;-54
2022/01/20 06:16:11;;;;;;;8.57;3.25;;;16.60;56.90;;;;;;5009277;28;20050;-52
2022/01/20 06:18:36;;;;;;;10.55;4.38;;;16.60;56.90;;;;;;5020891;28;20736;-57
2022/01/20 06:21:02;;;;;;;12.65;5.05;;;16.50;56.80;;;;;;5019241;28;20080;-56
2022/01/20 06:23:27;;;;;;;12.95;5.28;;;16.60;56.90;;;;;;4996530;28;20041;-56
2022/01/20 06:25:53;;;;;;;12.95;4.90;;;16.60;57.00;;;;;;5033861;28;20455;-52
2022/01/20 06:28:19;;;;;;;9.23;4.68;;;16.60;57.10;;;;;;5016108;28;20109;-54
2022/01/20 06:30:45;;;;;;;8.63;4.43;;;16.50;57.00;;;;;;5015289;28;20041;-54
2022/01/20 06:33:10;;;;;;;10.57;3.78;;;16.50;56.90;;;;;;5008165;28;20218;-56
2022/01/20 06:35:36;;;;;;;4.45;3.30;;;16.50;56.90;;;;;;5012555;28;20025;-51
2022/01/20 06:38:01;;;;;;;10.98;3.50;;;16.50;56.80;;;;;;5026907;28;20033;-52
2022/01/20 06:40:27;;;;;;;8.10;3.90;;;16.50;56.70;;;;;;5025088;28;20018;-55
2022/01/20 06:42:53;;;;;;;7.50;3.15;;;16.50;56.60;;;;;;5023815;28;20036;-52
2022/01/20 06:45:19;;;;;;;9.05;2.95;;;16.60;56.60;;;;;;5032067;28;20479;-55
2022/01/20 06:47:44;;;;;;;9.32;4.13;;;16.60;56.60;;;;;;5031547;28;20396;-56
2022/01/20 06:50:11;;;;;;;6.80;2.90;;;16.60;56.40;;;;;;5021353;28;20532;-56
2022/01/20 06:52:37;;;;;;;7.93;2.55;;;16.60;56.50;;;;;;5012966;28;20537;-56
2022/01/20 06:55:05;;;;;;;6.65;2.80;;;16.60;56.40;;;;;;5016418;28;20113;-51
2022/01/20 06:57:32;;;;;;;9.65;2.83;;;16.60;56.40;;;;;;5041642;28;20037;-56
2022/01/20 06:59:57;;;;;;;7.18;2.30;;;16.60;56.50;;;;;;5015267;28;20056;-52
2022/01/20 07:02:23;;;;;;;12.05;2.92;;;16.60;56.50;;;;;;5013963;28;20611;-55
2022/01/20 07:04:49;;;;;;;5.68;3.33;;;16.50;56.40;;;;;;5013168;28;20652;-54
2022/01/20 07:07:14;;;;;;;8.20;3.05;;;16.60;56.50;;;;;;5016572;28;20049;-55
2022/01/20 07:09:40;;;;;;;5.28;2.03;;;16.60;56.70;;;;;;5025605;28;20033;-57
2022/01/20 07:12:06;;;;;;;6.82;2.72;;;16.60;56.60;;;;;;5024213;28;20030;-55
2022/01/20 07:14:31;;;;;;;9.50;2.88;;;16.50;56.40;;;;;;5033354;28;20124;-56
2022/01/20 07:16:57;;;;;;;11.77;2.80;;;16.60;56.50;;;;;;5014290;28;20128;-56
2022/01/20 07:19:23;;;;;;;4.43;2.10;;;16.60;56.40;;;;;;5024490;28;20112;-55
2022/01/20 07:21:48;;;;;;;6.10;2.50;;;16.50;56.40;;;;;;5025904;28;20041;-54
2022/01/20 07:24:14;;;;;;;9.13;3.00;;;16.50;56.40;;;;;;5024091;28;20038;-53
2022/01/20 07:26:39;;;;;;;8.15;2.75;;;16.50;56.40;;;;;;5025025;28;20087;-55
2022/01/20 07:29:05;;;;;;;12.25;3.03;;;16.50;56.40;;;;;;5014663;28;20030;-54
2022/01/20 07:31:30;;;;;;;9.13;3.00;;;16.50;56.40;;;;;;5019648;28;20125;-57
2022/01/20 07:33:56;;;;;;;10.57;3.53;;;16.50;56.40;;;;;;5012977;28;20037;-55
2022/01/20 07:36:21;;;;;;;16.73;3.15;;;16.60;56.60;;;;;;5026381;28;20467;-54
2022/01/20 07:38:47;;;;;;;18.55;6.50;;;16.50;56.50;;;;;;5018919;28;20037;-58
2022/01/20 07:41:13;;;;;;;26.85;10.57;;;16.50;56.90;;;;;;5008210;28;20403;-56
2022/01/20 07:43:39;;;;;;;35.03;11.80;;;16.50;57.50;;;;;;5019355;28;20619;-54
2022/01/20 07:46:04;;;;;;;33.22;14.32;;;16.60;57.90;;;;;;5015358;28;20034;-53
2022/01/20 07:48:30;;;;;;;28.58;12.85;;;16.60;58.00;;;;;;5014692;28;20105;-52
2022/01/20 07:50:56;;;;;;;27.13;11.90;;;16.50;58.00;;;;;;5020005;28;20458;-58
2022/01/20 07:53:21;;;;;;;29.42;12.73;;;16.50;58.00;;;;;;5004771;28;20033;-56
2022/01/20 07:55:47;;;;;;;29.25;11.30;;;16.50;58.00;;;;;;5011108;28;20025;-54
2022/01/20 07:58:12;;;;;;;27.50;11.40;;;16.50;57.90;;;;;;5013307;28;20108;-57
2022/01/20 08:00:38;;;;;;;23.20;10.20;;;16.50;57.90;;;;;;5009952;28;20032;-57
2022/01/20 08:03:03;;;;;;;24.83;10.88;;;16.60;57.90;;;;;;5025222;28;20390;-52
2022/01/20 08:05:29;;;;;;;24.85;9.30;;;16.60;57.90;;;;;;5013685;28;20093;-52
2022/01/20 08:07:54;;;;;;;25.65;9.98;;;16.50;57.80;;;;;;5012298;28;20062;-54
2022/01/20 08:10:20;;;;;;;19.20;9.57;;;16.50;57.80;;;;;;5014508;28;20014;-56
2022/01/20 08:12:45;;;;;;;21.75;8.30;;;16.50;57.80;;;;;;5024197;28;20034;-57
2022/01/20 08:15:12;;;;;;;20.50;8.32;;;16.50;57.80;;;;;;5034353;28;20446;-53
2022/01/20 08:17:39;;;;;;;17.83;8.32;;;16.50;57.80;;;;;;5023770;28;20523;-55
2022/01/20 08:20:05;;;;;;;21.50;8.40;;;16.50;57.70;;;;;;5008498;28;20099;-55
2022/01/20 08:22:34;;;;;;;19.98;8.52;;;16.50;57.70;;;;;;5029857;28;20025;-59
2022/01/20 08:25:00;;;;;;;16.88;7.93;;;16.50;57.70;;;;;;5012370;28;20062;-52
2022/01/20 08:27:26;;;;;;;15.73;7.78;;;16.50;57.60;;;;;;5020084;28;20029;-59
2022/01/20 08:29:51;;;;;;;11.55;6.47;;;16.50;57.60;;;;;;5019950;28;20034;-54
2022/01/20 08:32:17;;;;;;;16.52;6.97;;;16.50;57.60;;;;;;5021049;28;20030;-55
2022/01/20 08:34:42;;;;;;;16.08;7.50;;;16.50;57.50;;;;;;5019283;28;20099;-56
2022/01/20 08:37:08;;;;;;;12.80;6.65;;;16.50;57.50;;;;;;5022894;28;20060;-57
2022/01/20 08:42:00;;;;;;;17.55;7.15;;;16.50;57.40;;;;;;5017100;28;20179;-54
2022/01/20 08:44:25;;;;;;;15.20;7.03;;;16.50;57.30;;;;;;5022927;28;20037;-56
2022/01/20 08:46:52;;;;;;;11.68;6.25;;;16.50;57.40;;;;;;5005581;28;20033;-55
2022/01/20 08:49:18;;;;;;;14.15;5.50;;;16.50;57.40;;;;;;5011352;28;20617;-55
2022/01/20 08:51:43;;;;;;;9.10;5.60;;;16.40;57.50;;;;;;5034351;28;20029;-56
2022/01/20 08:54:09;;;;;;;12.27;5.85;;;16.40;57.60;;;;;;5020023;28;20049;-55
2022/01/20 08:56:34;;;;;;;14.10;5.45;;;16.40;57.80;;;;;;5013239;28;20040;-56
2022/01/20 08:59:01;;;;;;;14.48;5.82;;;16.40;57.80;;;;;;5008544;28;20057;-54
2022/01/20 09:01:28;;;;;;;15.60;5.40;;;16.40;57.80;;;;;;5011324;28;20030;-56
2022/01/20 09:03:54;;;;;;;10.80;5.45;;;16.40;57.70;;;;;;5020468;28;20197;-53
2022/01/20 09:06:20;;;;;;;10.65;4.80;;;16.40;57.70;;;;;;5035971;28;20112;-55
2022/01/20 09:08:47;;;;;;;10.45;4.78;;;16.40;57.80;;;;;;5020074;28;20830;-56
2022/01/20 09:11:21;;;;;;;8.88;4.68;;;16.40;57.80;;;;;;5010926;28;20090;-57
2022/01/20 09:16:31;;;;;;;10.50;4.63;;;16.40;57.90;;;;;;5024445;28;20583;-56
2022/01/20 09:18:57;;;;;;;8.38;4.22;;;16.40;58.00;;;;;;5012074;28;20029;-55
2022/01/20 09:21:23;;;;;;;14.40;4.60;;;16.40;58.00;;;;;;5018928;28;20056;-55
2022/01/20 09:23:49;;;;;;;8.68;4.03;;;16.40;58.10;;;;;;5016158;28;20076;-53
2022/01/20 09:26:14;;;;;;;9.13;4.05;;;16.40;58.10;;;;;;5007614;28;20034;-53
2022/01/20 09:28:40;;;;;;;11.43;3.83;;;16.40;58.10;;;;;;5011955;28;20554;-57
2022/01/20 09:31:07;;;;;;;5.15;3.40;;;16.40;58.10;;;;;;5015410;28;20044;-58
2022/01/20 09:33:32;;;;;;;8.10;4.30;;;16.40;58.10;;;;;;5023861;28;20080;-56
2022/01/20 09:35:58;;;;;;;11.85;4.18;;;16.40;58.10;;;;;;5022124;28;20041;-52
2022/01/20 09:38:24;;;;;;;8.00;3.33;;;16.40;58.20;;;;;;5017349;28;20168;-57
2022/01/20 09:40:50;;;;;;;6.95;3.63;;;16.40;58.20;;;;;;5004350;28;20117;-52
2022/01/20 09:43:15;;;;;;;7.32;3.75;;;16.40;58.20;;;;;;5008361;28;20034;-52
2022/01/20 09:45:41;;;;;;;8.15;3.85;;;16.40;58.10;;;;;;5011741;28;20025;-54
2022/01/20 09:48:09;;;;;;;6.80;3.25;;;16.40;58.20;;;;;;5009591;28;20058;-55
2022/01/20 09:50:34;;;;;;;8.65;3.00;;;16.40;58.30;;;;;;5015486;28;20021;-53
2022/01/20 09:53:01;;;;;;;10.50;2.92;;;16.40;58.50;;;;;;5025663;28;20038;-54
2022/01/20 09:55:27;;;;;;;7.05;3.00;;;16.40;58.60;;;;;;5011778;28;20081;-62
2022/01/20 09:57:53;;;;;;;4.90;3.25;;;16.40;58.70;;;;;;5018368;28;20120;-55
2022/01/20 10:00:18;;;;;;;5.60;2.50;;;16.50;58.70;;;;;;5010133;28;20156;-53
2022/01/20 10:03:06;;;;;;;5.75;3.28;;;16.50;58.70;;;;;;5018516;28;20082;-54
2022/01/20 10:05:41;;;;;;;6.40;2.63;;;16.50;58.60;;;;;;5012045;28;20120;-56
2022/01/20 10:08:13;;;;;;;6.72;2.70;;;16.50;58.60;;;;;;5028663;23;20681;-67
2022/01/20 10:10:44;;;;;;;7.85;2.58;;;16.50;58.60;;;;;;5023233;28;20064;-68
2022/01/20 10:13:09;;;;;;;3.97;2.15;;;16.50;58.50;;;;;;5025039;28;20036;-68
2022/01/20 10:15:35;;;;;;;7.35;2.28;;;16.50;58.50;;;;;;5027296;28;20021;-71
2022/01/20 10:18:09;;;;;;;6.85;2.45;;;16.40;58.40;;;;;;5016496;28;20038;-68
2022/01/20 10:20:35;;;;;;;6.13;2.53;;;16.50;58.40;;;;;;5012129;28;20037;-70
2022/01/20 10:23:00;;;;;;;6.43;2.55;;;16.40;58.40;;;;;;5011511;28;20026;-68
2022/01/20 10:25:26;;;;;;;3.60;1.67;;;16.50;58.60;;;;;;5006644;28;20116;-68
2022/01/20 10:27:52;;;;;;;11.82;2.50;;;16.50;58.80;;;;;;5019351;28;20028;-68
2022/01/20 10:30:18;;;;;;;14.27;2.75;;;16.50;58.80;;;;;;5026994;28;20032;-70
2022/01/20 10:32:46;;;;;;;4.88;2.05;;;16.50;58.80;;;;;;5020141;28;20643;-69
2022/01/20 10:35:12;;;;;;;5.07;2.35;;;16.50;58.70;;;;;;5015352;28;20055;-69
2022/01/20 10:37:52;;;;;;;6.07;2.03;;;16.50;58.70;;;;;;5014567;28;20029;-68
2022/01/20 10:40:17;;;;;;;6.55;2.08;;;16.50;58.60;;;;;;5019691;28;20030;-68
2022/01/20 10:42:44;;;;;;;6.28;2.08;;;16.50;58.40;;;;;;5029089;28;20400;-68
2022/01/20 10:45:23;;;;;;;5.57;1.60;;;16.50;58.40;;;;;;5012084;28;20105;-68
2022/01/20 10:47:50;;;;;;;4.65;1.75;;;16.50;58.30;;;;;;5019198;28;20029;-68
2022/01/20 10:50:23;;;;;;;4.72;2.08;;;16.50;58.30;;;;;;5023386;28;20038;-69
2022/01/20 10:52:50;;;;;;;8.15;1.70;;;16.50;58.10;;;;;;5015801;28;20100;-69
2022/01/20 10:55:30;;;;;;;5.50;1.85;;;16.50;58.00;;;;;;5023157;28;20028;-70
2022/01/20 10:57:56;;;;;;;4.85;1.90;;;16.50;57.90;;;;;;5010659;28;20076;-68
2022/01/20 11:00:22;;;;;;;5.97;2.15;;;16.50;57.80;;;;;;5013296;28;20025;-69
2022/01/20 11:02:50;;;;;;;4.65;1.65;;;16.60;57.90;;;;;;5022763;28;20021;-69
2022/01/20 11:05:16;;;;;;;4.03;1.98;;;16.60;57.90;;;;;;5010366;28;20049;-69
2022/01/20 11:07:43;;;;;;;6.43;2.13;;;16.60;57.70;;;;;;5020433;28;20018;-69
2022/01/20 11:10:10;;;;;;;5.40;2.15;;;16.60;57.60;;;;;;5010069;28;20025;-69
2022/01/20 11:12:36;;;;;;;4.10;1.67;;;16.60;57.50;;;;;;5027189;28;20017;-69
2022/01/20 11:15:01;;;;;;;3.97;1.40;;;16.60;57.40;;;;;;5015066;28;20052;-69
2022/01/20 11:17:28;;;;;;;4.68;1.58;;;16.60;57.30;;;;;;5012771;28;20033;-69
2022/01/20 11:19:56;;;;;;;4.40;1.88;;;16.60;57.20;;;;;;5019240;28;20472;-68
2022/01/20 11:22:21;;;;;;;4.30;1.70;;;16.60;57.10;;;;;;5017975;28;20030;-69
2022/01/20 11:24:59;;;;;;;4.35;1.85;;;16.60;57.10;;;;;;5016107;28;20030;-68
2022/01/20 11:27:34;;;;;;;3.85;1.52;;;16.60;57.00;;;;;;5019535;28;20064;-69
2022/01/20 11:30:01;;;;;;;6.00;1.60;;;16.60;57.00;;;;;;5029863;28;20063;-68
2022/01/20 11:32:27;;;;;;;6.05;2.08;;;16.60;57.40;;;;;;5022693;28;20040;-70
2022/01/20 11:35:06;;;;;;;7.82;2.30;;;16.60;57.90;;;;;;5021787;28;20494;-70
2022/01/20 11:37:54;;;;;;;3.88;1.55;;;16.60;58.30;;;;;;5019875;28;20022;-70
2022/01/20 11:40:21;;;;;;;7.38;1.40;;;16.60;58.80;;;;;;5014309;28;20087;-70
2022/01/20 11:43:06;;;;;;;3.50;1.55;;;16.60;59.00;;;;;;5020365;28;20025;-69
2022/01/20 11:45:34;;;;;;;5.93;1.60;;;16.50;59.30;;;;;;5019157;28;20117;-71
2022/01/20 11:48:11;;;;;;;4.55;1.48;;;16.60;59.50;;;;;;5025543;28;20029;-68
2022/01/20 11:50:37;;;;;;;2.63;1.20;;;16.60;59.50;;;;;;5024391;28;20026;-68
2022/01/20 11:53:12;;;;;;;2.95;1.38;;;16.50;59.20;;;;;;5010111;28;20088;-69
2022/01/20 11:55:42;;;;;;;9.23;3.50;;;16.50;59.00;;;;;;5024013;28;20125;-69
2022/01/20 11:58:10;;;;;;;18.38;7.57;;;16.50;59.00;;;;;;5013897;28;20033;-68
2022/01/20 12:00:36;;;;;;;33.83;13.98;;;16.50;58.90;;;;;;5021129;28;20640;-69
2022/01/20 12:03:09;;;;;;;45.03;18.10;;;16.50;58.90;;;;;;5013060;28;20044;-68
2022/01/20 12:05:35;;;;;;;44.20;19.35;;;16.50;58.80;;;;;;5028569;28;20826;-68
2022/01/20 12:08:19;;;;;;;64.10;20.95;;;16.50;58.80;;;;;;5028297;28;20037;-69
2022/01/20 12:10:59;;;;;;;70.07;26.77;;;16.50;58.80;;;;;;5020886;28;20041;-68
2022/01/20 12:13:24;;;;;;;73.25;27.15;;;16.50;58.80;;;;;;5015560;28;20032;-68
2022/01/20 12:15:56;;;;;;;72.93;27.90;;;16.50;58.80;;;;;;5026628;28;20064;-68
2022/01/20 12:18:21;;;;;;;69.15;27.00;;;16.50;58.70;;;;;;5025027;28;20025;-67
2022/01/20 12:20:47;;;;;;;63.45;26.27;;;16.50;58.60;;;;;;5023101;28;20034;-68
2022/01/20 12:23:13;;;;;;;73.03;27.33;;;16.50;58.60;;;;;;5019854;28;20030;-68
2022/01/20 12:25:39;;;;;;;69.30;25.20;;;16.50;58.50;;;;;;5023140;28;20089;-68
2022/01/20 12:28:13;;;;;;;63.38;24.30;;;16.50;58.40;;;;;;5021739;28;20100;-67
2022/01/20 12:30:44;;;;;;;67.75;23.17;;;16.50;58.40;;;;;;5016200;28;20029;-68
2022/01/20 12:33:15;;;;;;;58.10;23.40;;;16.50;58.40;;;;;;5028226;28;20033;-68
2022/01/20 12:35:42;;;;;;;50.60;21.45;;;16.50;58.30;;;;;;5016726;28;20028;-68
2022/01/20 12:38:30;;;;;;;48.95;19.33;;;16.50;58.20;;;;;;5023625;28;20095;-68
2022/01/20 12:41:18;;;;;;;51.83;19.70;;;16.50;58.10;;;;;;5022349;28;20022;-68
2022/01/20 12:43:53;;;;;;;43.85;18.70;;;16.50;58.10;;;;;;5017910;28;20511;-68
2022/01/20 12:46:21;;;;;;;50.92;18.20;;;16.50;58.00;;;;;;5011670;28;20424;-68
2022/01/20 12:48:53;;;;;;;44.35;18.10;;;16.50;58.00;;;;;;5026411;28;20033;-69
2022/01/20 12:51:19;;;;;;;45.50;17.85;;;16.50;58.00;;;;;;5022066;28;20056;-68
2022/01/20 12:53:55;;;;;;;42.42;16.45;;;16.50;57.90;;;;;;5008464;28;20477;-69
2022/01/20 12:56:28;;;;;;;41.13;16.60;;;16.50;57.90;;;;;;5017464;28;20029;-69
2022/01/20 12:58:54;;;;;;;38.90;14.63;;;16.50;57.90;;;;;;5021033;28;20399;-69
2022/01/20 13:01:20;;;;;;;33.05;14.18;;;16.50;57.90;;;;;;5022217;28;20025;-68
2022/01/20 13:03:45;;;;;;;40.55;13.85;;;16.50;57.90;;;;;;5023678;28;20036;-68
2022/01/20 13:06:21;;;;;;;37.78;13.85;;;16.50;58.00;;;;;;5015393;28;20037;-69
2022/01/20 13:09:05;;;;;;;32.00;12.93;;;16.50;58.10;;;;;;5017968;28;20030;-69
2022/01/20 13:11:43;;;;;;;34.67;12.55;;;16.50;58.10;;;;;;5022706;28;20025;-68
2022/01/20 13:14:09;;;;;;;29.58;11.73;;;16.50;58.20;;;;;;5019123;28;20029;-68
2022/01/20 13:16:35;;;;;;;26.00;11.50;;;16.50;58.20;;;;;;5023291;28;20113;-68
2022/01/20 13:19:03;;;;;;;29.88;10.82;;;16.50;58.20;;;;;;5021881;28;20101;-68
2022/01/20 13:21:43;;;;;;;25.98;11.02;;;16.50;58.20;;;;;;5019475;28;20030;-68
2022/01/20 13:24:09;;;;;;;27.63;11.38;;;16.40;58.20;;;;;;5020766;28;20253;-68
2022/01/20 13:26:53;;;;;;;29.85;10.90;;;16.50;58.20;;;;;;5025945;28;20029;-69
2022/01/20 13:29:19;;;;;;;22.88;9.73;;;16.40;58.20;;;;;;5023018;28;20018;-68
2022/01/20 13:31:45;;;;;;;25.67;9.57;;;16.40;58.20;;;;;;5022649;28;20109;-68
2022/01/20 13:34:14;;;;;;;26.90;9.68;;;16.50;58.30;;;;;;5020653;28;20029;-68
2022/01/20 13:36:47;;;;;;;20.98;9.40;;;16.40;58.30;;;;;;5015539;28;20053;-68
2022/01/20 13:39:12;;;;;;;23.05;9.10;;;16.40;58.30;;;;;;5019298;28;20393;-68
2022/01/20 13:41:38;;;;;;;20.30;8.38;;;16.40;58.30;;;;;;5021826;28;20100;-68
2022/01/20 13:47:01;;;;;;;20.58;7.70;;;16.50;58.40;;;;;;5017798;28;20131;-68
2022/01/20 13:49:26;;;;;;;17.70;7.63;;;16.40;58.40;;;;;;5012013;28;20109;-68
2022/01/20 13:51:59;;;;;;;21.23;7.78;;;16.40;58.40;;;;;;5018308;28;20025;-68
2022/01/20 13:54:36;;;;;;;18.42;7.30;;;16.40;58.60;;;;;;5011486;28;20060;-68